Time;durP1;ratioP1;P1;durP2;ratioP2;P2;SDS_P1;SDS_P2;PMS_P1;PMS_P2;Temp;Humidity;BMP_temperature;BMP_pressure;BME280_temperature;BME280_humidity;BME280_pressure;Samples;Min_cycle;Max_cycle;Signal;HPM_P1;HPM_P2
2022/09/30 00:00:19;;;;;;;5.05;4.00;;;8.70;99.90;;;;;;4965670;28;20060;-76
2022/09/30 00:02:47;;;;;;;9.10;4.32;;;8.70;99.90;;;;;;4963605;28;20361;-75
2022/09/30 00:05:13;;;;;;;10.55;5.22;;;8.70;99.90;;;;;;4967356;28;20031;-75
2022/09/30 00:07:39;;;;;;;7.10;5.10;;;8.70;99.90;;;;;;4962970;28;20023;-74
2022/09/30 00:10:06;;;;;;;12.05;5.57;;;8.70;99.90;;;;;;4963360;28;20368;-76
2022/09/30 00:12:31;;;;;;;9.43;5.72;;;8.70;99.90;;;;;;4958923;28;20108;-73
2022/09/30 00:15:00;;;;;;;13.07;5.90;;;8.70;99.90;;;;;;4960573;28;20019;-75
2022/09/30 00:17:27;;;;;;;7.88;5.47;;;8.60;99.90;;;;;;4963543;28;20035;-75
2022/09/30 00:19:52;;;;;;;11.50;5.65;;;8.60;99.90;;;;;;4965942;28;20073;-76
2022/09/30 00:22:18;;;;;;;13.95;6.15;;;8.50;99.90;;;;;;4956199;28;20027;-75
2022/09/30 00:24:45;;;;;;;10.23;5.85;;;8.50;99.90;;;;;;4951395;28;20037;-75
2022/09/30 00:27:11;;;;;;;8.48;6.25;;;8.50;99.90;;;;;;4964814;28;20516;-76
2022/09/30 00:29:38;;;;;;;13.93;6.30;;;8.50;99.90;;;;;;4960307;28;20045;-75
2022/09/30 00:32:04;;;;;;;13.13;6.18;;;8.50;99.90;;;;;;4963244;28;20042;-75
2022/09/30 00:34:30;;;;;;;7.95;6.13;;;8.50;99.90;;;;;;4964747;28;20027;-75
2022/09/30 00:36:55;;;;;;;12.35;6.60;;;8.50;99.90;;;;;;4959148;28;20023;-75
2022/09/30 00:39:26;;;;;;;8.65;5.95;;;8.50;99.90;;;;;;4962978;28;20477;-73
2022/09/30 00:42:00;;;;;;;7.90;5.45;;;8.50;99.90;;;;;;4963091;28;20768;-75
2022/09/30 00:44:54;;;;;;;9.40;6.13;;;8.50;99.90;;;;;;4964740;28;20736;-76
2022/09/30 00:47:50;;;;;;;10.70;5.30;;;8.50;99.90;;;;;;4943821;28;20027;-75
2022/09/30 00:50:33;;;;;;;6.53;5.13;;;8.50;99.90;;;;;;4966161;28;20360;-75
2022/09/30 00:53:13;;;;;;;6.63;4.82;;;8.40;99.90;;;;;;4962750;28;20030;-75
2022/09/30 00:55:45;;;;;;;6.20;4.60;;;8.40;99.90;;;;;;4946604;28;20091;-75
2022/09/30 00:58:19;;;;;;;12.57;5.15;;;8.40;99.90;;;;;;4947864;28;20109;-76
2022/09/30 01:00:45;;;;;;;6.38;4.97;;;8.40;99.90;;;;;;4962447;28;20037;-76
2022/09/30 01:03:11;;;;;;;10.88;4.90;;;8.40;99.90;;;;;;4964473;28;20031;-74
2022/09/30 01:05:37;;;;;;;11.68;5.53;;;8.40;99.90;;;;;;4947220;28;20105;-75
2022/09/30 01:08:05;;;;;;;6.30;4.70;;;8.30;99.90;;;;;;4963838;28;20468;-77
2022/09/30 01:10:30;;;;;;;10.43;5.57;;;8.40;99.90;;;;;;4966126;28;20031;-75
2022/09/30 01:12:57;;;;;;;12.52;5.43;;;8.30;99.90;;;;;;4963605;28;20108;-75
2022/09/30 01:15:34;;;;;;;7.43;5.10;;;8.40;99.90;;;;;;4945157;28;20060;-75
2022/09/30 01:18:12;;;;;;;5.90;5.20;;;8.40;99.90;;;;;;4960622;28;20019;-76
2022/09/30 01:21:26;;;;;;;9.98;5.00;;;8.30;99.90;;;;;;4965128;28;20046;-75
2022/09/30 01:24:22;;;;;;;12.13;5.78;;;8.30;99.90;;;;;;4916233;28;20450;-74
2022/09/30 01:27:06;;;;;;;8.05;5.03;;;8.30;99.90;;;;;;4945325;28;20024;-76
2022/09/30 01:29:50;;;;;;;9.05;4.78;;;8.30;99.90;;;;;;4960580;28;20034;-74
2022/09/30 01:32:22;;;;;;;12.07;5.45;;;8.30;99.90;;;;;;4963129;28;20038;-74
2022/09/30 01:34:58;;;;;;;7.68;4.70;;;8.30;99.90;;;;;;4949051;28;20453;-75
2022/09/30 01:37:35;;;;;;;5.97;5.18;;;8.30;99.90;;;;;;4954483;28;20023;-75
2022/09/30 01:40:27;;;;;;;6.97;5.45;;;8.30;99.90;;;;;;4955788;28;20093;-75
2022/09/30 01:43:10;;;;;;;6.43;5.72;;;8.20;99.90;;;;;;4964231;28;20380;-75
2022/09/30 01:45:45;;;;;;;8.05;5.72;;;8.20;99.90;;;;;;4947975;28;20028;-75
2022/09/30 01:48:45;;;;;;;10.00;5.90;;;8.20;99.90;;;;;;4963359;28;20143;-74
2022/09/30 01:51:24;;;;;;;5.85;5.20;;;8.20;99.90;;;;;;4967840;28;20039;-75
2022/09/30 01:54:17;;;;;;;8.20;5.50;;;8.20;99.90;;;;;;4948690;28;20027;-75
2022/09/30 01:56:47;;;;;;;10.13;5.97;;;8.10;99.90;;;;;;4964999;28;20527;-75
2022/09/30 01:59:27;;;;;;;10.45;5.28;;;8.10;99.90;;;;;;4967317;28;20023;-75
2022/09/30 02:02:17;;;;;;;14.60;5.65;;;8.00;99.90;;;;;;4965398;28;20039;-75
2022/09/30 02:05:06;;;;;;;8.95;6.22;;;8.00;99.90;;;;;;4963343;28;20499;-75
2022/09/30 02:07:53;;;;;;;9.18;6.32;;;8.00;99.90;;;;;;4964751;28;20042;-74
2022/09/30 02:10:34;;;;;;;9.70;5.75;;;8.00;99.90;;;;;;4965054;28;20026;-75
2022/09/30 02:13:15;;;;;;;7.18;5.90;;;7.90;99.90;;;;;;4965852;28;20041;-76
2022/09/30 02:15:47;;;;;;;7.57;5.55;;;7.90;99.90;;;;;;4968311;28;20030;-77
2022/09/30 02:18:31;;;;;;;10.02;5.78;;;7.90;99.90;;;;;;4963680;28;20024;-76
2022/09/30 02:21:00;;;;;;;5.57;4.70;;;7.90;99.90;;;;;;4963736;28;20015;-74
2022/09/30 02:23:31;;;;;;;12.80;5.13;;;7.90;99.90;;;;;;4963359;28;20034;-75
2022/09/30 02:26:09;;;;;;;6.55;4.97;;;8.00;99.90;;;;;;4963883;28;20114;-74
2022/09/30 02:28:41;;;;;;;6.97;4.65;;;7.90;99.90;;;;;;4950170;28;20396;-76
2022/09/30 02:31:09;;;;;;;6.68;5.05;;;7.90;99.90;;;;;;4965560;28;20031;-74
2022/09/30 02:33:54;;;;;;;7.93;4.53;;;7.80;99.90;;;;;;4966890;28;20530;-75
2022/09/30 02:36:41;;;;;;;5.53;4.85;;;7.80;99.90;;;;;;4948785;28;20020;-75
2022/09/30 02:39:15;;;;;;;12.35;5.60;;;7.80;99.90;;;;;;4966226;28;20027;-75
2022/09/30 02:41:46;;;;;;;10.98;4.80;;;7.70;99.90;;;;;;4949474;28;20058;-76
2022/09/30 02:44:13;;;;;;;11.43;5.70;;;7.70;99.90;;;;;;4963828;28;20663;-76
2022/09/30 02:46:42;;;;;;;9.38;5.05;;;7.60;99.90;;;;;;4949412;28;20035;-75
2022/09/30 02:49:17;;;;;;;8.38;5.38;;;7.60;99.90;;;;;;4964383;28;20031;-76
2022/09/30 02:51:48;;;;;;;7.03;5.30;;;7.50;99.90;;;;;;4966767;28;20053;-74
2022/09/30 02:54:20;;;;;;;11.20;6.50;;;7.50;99.90;;;;;;4965598;28;20037;-76
2022/09/30 02:56:54;;;;;;;6.97;5.22;;;7.50;99.90;;;;;;4964905;28;20106;-76
2022/09/30 02:59:22;;;;;;;8.00;6.13;;;7.60;99.90;;;;;;4960978;28;20074;-75
2022/09/30 03:01:48;;;;;;;7.72;5.07;;;7.60;99.90;;;;;;4963227;28;20478;-76
2022/09/30 03:04:23;;;;;;;7.25;5.70;;;7.60;99.90;;;;;;4966713;28;20019;-74
2022/09/30 03:06:49;;;;;;;8.75;5.53;;;7.50;99.90;;;;;;4966241;28;20023;-73
2022/09/30 03:09:15;;;;;;;8.05;5.82;;;7.50;99.90;;;;;;4962670;28;20057;-75
2022/09/30 03:11:41;;;;;;;5.43;4.90;;;7.40;99.90;;;;;;4963657;28;20023;-74
2022/09/30 03:14:28;;;;;;;7.43;5.45;;;7.40;99.90;;;;;;4966492;28;20437;-77
2022/09/30 03:17:25;;;;;;;6.53;5.40;;;7.30;99.90;;;;;;4950594;28;20050;-76
2022/09/30 03:20:11;;;;;;;7.28;6.45;;;7.30;99.90;;;;;;4966458;28;20039;-75
2022/09/30 03:23:38;;;;;;;7.80;6.13;;;7.30;99.90;;;;;;4948474;28;20059;-76
2022/09/30 03:26:31;;;;;;;10.02;6.07;;;7.40;99.90;;;;;;4878341;29;20387;-75
2022/09/30 03:29:29;;;;;;;11.45;7.55;;;7.40;99.90;;;;;;4959637;28;20054;-76
2022/09/30 03:32:33;;;;;;;10.02;7.10;;;7.30;99.90;;;;;;4958338;28;20027;-75
2022/09/30 03:35:05;;;;;;;11.13;7.13;;;7.30;99.90;;;;;;4961166;28;20046;-75
2022/09/30 03:37:50;;;;;;;10.50;7.22;;;7.30;99.90;;;;;;4953411;28;20479;-76
2022/09/30 03:40:44;;;;;;;11.07;7.35;;;7.30;99.90;;;;;;4951233;28;20121;-75
2022/09/30 03:43:22;;;;;;;10.13;7.35;;;7.30;99.90;;;;;;4962380;28;20023;-76
2022/09/30 03:46:07;;;;;;;9.95;7.05;;;7.30;99.90;;;;;;4956166;28;20381;-76
2022/09/30 03:48:38;;;;;;;12.07;7.63;;;7.30;99.90;;;;;;4961147;28;20034;-75
2022/09/30 03:51:06;;;;;;;12.10;8.48;;;7.40;99.90;;;;;;4948745;28;20031;-74
2022/09/30 03:53:37;;;;;;;16.10;7.97;;;7.40;99.90;;;;;;4960678;28;20042;-76
2022/09/30 03:56:03;;;;;;;15.23;7.75;;;7.40;99.90;;;;;;4963834;28;20050;-76
2022/09/30 03:58:28;;;;;;;18.23;7.28;;;7.40;99.90;;;;;;4960754;28;20027;-76
2022/09/30 04:00:57;;;;;;;16.60;7.53;;;7.40;99.90;;;;;;4963626;28;20523;-74
2022/09/30 04:03:25;;;;;;;10.93;6.82;;;7.40;99.90;;;;;;4965716;28;20022;-76
2022/09/30 04:05:50;;;;;;;10.77;7.40;;;7.40;99.90;;;;;;4962434;28;20198;-76
2022/09/30 04:08:21;;;;;;;13.57;7.80;;;7.40;99.90;;;;;;4964410;28;20580;-75
2022/09/30 04:10:49;;;;;;;20.08;9.32;;;7.50;99.90;;;;;;4964799;28;20113;-74
2022/09/30 04:13:15;;;;;;;12.63;8.70;;;7.50;99.90;;;;;;4960493;28;20640;-74
2022/09/30 04:15:41;;;;;;;13.02;8.50;;;7.50;99.90;;;;;;4966354;28;20122;-75
2022/09/30 04:18:06;;;;;;;19.52;9.70;;;7.60;99.90;;;;;;4963619;28;20035;-76
2022/09/30 04:20:37;;;;;;;13.45;8.98;;;7.60;99.90;;;;;;4963787;28;20047;-75
2022/09/30 04:23:02;;;;;;;17.67;10.45;;;7.60;99.90;;;;;;4965219;28;20019;-76
2022/09/30 04:25:28;;;;;;;18.92;10.57;;;7.70;99.90;;;;;;4963839;28;20030;-75
2022/09/30 04:27:54;;;;;;;14.73;9.95;;;7.70;99.90;;;;;;4966429;28;20150;-76
2022/09/30 04:30:20;;;;;;;14.80;10.65;;;7.80;99.90;;;;;;4964897;28;20114;-76
2022/09/30 04:32:48;;;;;;;18.70;10.13;;;7.90;99.90;;;;;;4964874;28;20035;-76
2022/09/30 04:35:14;;;;;;;12.90;10.10;;;7.90;99.90;;;;;;4962800;28;20038;-76
2022/09/30 04:37:45;;;;;;;16.60;10.60;;;7.90;99.90;;;;;;4950348;28;20373;-75
2022/09/30 04:40:12;;;;;;;17.73;10.13;;;8.00;99.90;;;;;;4964458;28;20030;-75
2022/09/30 04:42:41;;;;;;;15.25;10.15;;;8.00;99.90;;;;;;4945641;28;20038;-75
2022/09/30 04:45:09;;;;;;;17.65;10.48;;;8.00;99.90;;;;;;4961222;28;20356;-75
2022/09/30 04:47:35;;;;;;;17.50;9.40;;;8.10;99.90;;;;;;4962684;28;20031;-73
2022/09/30 04:50:00;;;;;;;19.98;10.30;;;8.10;99.90;;;;;;4962157;28;20372;-75
2022/09/30 04:52:26;;;;;;;17.27;10.27;;;8.10;99.90;;;;;;4952701;28;20118;-75
2022/09/30 04:54:57;;;;;;;17.67;10.38;;;8.10;99.90;;;;;;4964514;28;20450;-73
2022/09/30 04:57:24;;;;;;;18.77;9.98;;;8.10;99.90;;;;;;4960300;28;20024;-76
2022/09/30 04:59:49;;;;;;;19.85;9.88;;;8.10;99.90;;;;;;4954049;28;20023;-76
2022/09/30 05:02:15;;;;;;;18.67;10.63;;;8.10;99.90;;;;;;4962408;28;20093;-76
2022/09/30 05:04:41;;;;;;;20.33;9.35;;;8.10;99.90;;;;;;4962977;28;20110;-77
2022/09/30 05:07:07;;;;;;;18.33;9.43;;;8.10;99.90;;;;;;4963005;28;20097;-76
2022/09/30 05:09:38;;;;;;;25.20;12.27;;;8.10;99.90;;;;;;4964095;28;20027;-76
2022/09/30 05:12:04;;;;;;;19.45;10.80;;;8.00;99.90;;;;;;4961508;28;20034;-77
2022/09/30 05:14:30;;;;;;;17.25;9.68;;;8.00;99.90;;;;;;4960385;28;20019;-77
2022/09/30 05:17:00;;;;;;;15.95;9.95;;;7.90;99.90;;;;;;4966413;28;20195;-77
2022/09/30 05:19:26;;;;;;;18.48;10.25;;;8.00;99.90;;;;;;4963280;28;20038;-76
2022/09/30 05:21:54;;;;;;;19.33;9.05;;;8.00;99.90;;;;;;4960884;28;20023;-75
2022/09/30 05:24:20;;;;;;;16.38;8.75;;;8.00;99.90;;;;;;4962605;28;20554;-76
2022/09/30 05:26:49;;;;;;;18.38;9.23;;;8.00;99.90;;;;;;4962128;28;20034;-75
2022/09/30 05:29:17;;;;;;;25.90;9.23;;;7.90;99.90;;;;;;4964502;28;20019;-76
2022/09/30 05:31:43;;;;;;;28.38;9.63;;;7.90;99.90;;;;;;4962983;28;20042;-74
2022/09/30 05:34:08;;;;;;;14.90;8.20;;;7.90;99.90;;;;;;4952815;28;20027;-76
2022/09/30 05:36:34;;;;;;;16.75;9.30;;;7.80;99.90;;;;;;4950569;28;20039;-77
2022/09/30 05:39:02;;;;;;;21.55;10.18;;;7.80;99.90;;;;;;4942947;28;20114;-76
2022/09/30 05:41:31;;;;;;;15.63;9.32;;;7.80;99.90;;;;;;4964765;28;20031;-76
2022/09/30 05:44:00;;;;;;;17.35;10.13;;;7.80;99.90;;;;;;4960549;28;20019;-76
2022/09/30 05:46:26;;;;;;;18.48;9.40;;;7.80;99.90;;;;;;4959500;28;20023;-76
2022/09/30 05:48:54;;;;;;;17.23;10.00;;;7.80;99.90;;;;;;4963184;28;20392;-76
2022/09/30 05:51:20;;;;;;;18.85;9.88;;;7.80;99.90;;;;;;4959802;28;20027;-76
2022/09/30 05:53:46;;;;;;;17.52;9.95;;;7.80;99.90;;;;;;4964638;28;20027;-77
2022/09/30 05:56:12;;;;;;;23.52;10.57;;;7.80;99.90;;;;;;4959410;28;20042;-74
2022/09/30 05:58:40;;;;;;;25.48;10.93;;;7.80;99.90;;;;;;4961323;28;20330;-78
2022/09/30 06:01:12;;;;;;;22.20;10.68;;;7.80;99.90;;;;;;4960314;28;20065;-76
2022/09/30 06:03:44;;;;;;;19.48;9.95;;;7.80;99.90;;;;;;4947635;28;20027;-78
2022/09/30 06:06:13;;;;;;;17.63;10.38;;;7.90;99.90;;;;;;4958670;28;20110;-76
2022/09/30 06:08:39;;;;;;;15.65;9.80;;;8.00;99.90;;;;;;4964253;28;20464;-78
2022/09/30 06:11:10;;;;;;;20.55;10.95;;;8.10;99.90;;;;;;4957821;28;20023;-76
2022/09/30 06:13:36;;;;;;;18.33;11.27;;;8.10;99.90;;;;;;4943016;28;20433;-78
2022/09/30 06:16:04;;;;;;;26.50;11.30;;;8.20;99.90;;;;;;4951977;28;20027;-76
2022/09/30 06:18:30;;;;;;;15.27;10.20;;;8.30;99.90;;;;;;4956074;28;20030;-75
2022/09/30 06:21:01;;;;;;;23.17;10.52;;;8.30;99.90;;;;;;4955211;28;20050;-78
2022/09/30 06:23:30;;;;;;;21.05;10.57;;;8.30;99.90;;;;;;4953680;28;20059;-77
2022/09/30 06:25:57;;;;;;;24.25;10.18;;;8.40;99.90;;;;;;4965401;28;20113;-76
2022/09/30 06:28:23;;;;;;;20.60;10.70;;;8.50;99.90;;;;;;4965791;28;20109;-76
2022/09/30 06:30:49;;;;;;;17.23;10.02;;;8.50;99.90;;;;;;4962355;28;20051;-76
2022/09/30 06:33:16;;;;;;;21.92;10.85;;;8.60;99.90;;;;;;4966912;28;20118;-77
2022/09/30 06:35:46;;;;;;;19.02;10.32;;;8.70;99.90;;;;;;4963501;28;20042;-76
2022/09/30 06:38:15;;;;;;;19.92;10.48;;;8.70;99.90;;;;;;4965651;28;20385;-76
2022/09/30 06:40:42;;;;;;;28.77;11.13;;;8.70;99.90;;;;;;4953742;28;20035;-77
2022/09/30 06:43:10;;;;;;;18.23;10.82;;;8.80;99.90;;;;;;4961396;28;20049;-75
2022/09/30 06:45:38;;;;;;;16.67;10.75;;;8.80;99.90;;;;;;4960583;28;20035;-76
2022/09/30 06:48:07;;;;;;;24.02;12.05;;;8.90;99.90;;;;;;4961454;28;20054;-76
2022/09/30 06:50:34;;;;;;;17.70;10.82;;;9.00;99.90;;;;;;4961662;28;20369;-75
2022/09/30 06:53:02;;;;;;;27.10;11.20;;;9.00;99.90;;;;;;4947322;28;20408;-77
2022/09/30 06:55:31;;;;;;;22.55;10.65;;;9.10;99.90;;;;;;4962332;28;20034;-78
2022/09/30 06:57:57;;;;;;;17.88;10.38;;;9.10;99.90;;;;;;4961110;28;20027;-77
2022/09/30 07:00:24;;;;;;;14.85;10.35;;;9.20;99.90;;;;;;4948254;28;20042;-74
2022/09/30 07:02:50;;;;;;;21.58;10.98;;;9.30;99.90;;;;;;4964189;28;20026;-76
2022/09/30 07:05:18;;;;;;;18.80;10.10;;;9.40;99.90;;;;;;4965325;28;20031;-71
2022/09/30 07:07:44;;;;;;;19.80;11.65;;;9.50;99.90;;;;;;4948919;28;20081;-75
2022/09/30 07:10:13;;;;;;;18.48;11.13;;;9.60;99.90;;;;;;4963514;28;20372;-76
2022/09/30 07:12:39;;;;;;;22.70;12.00;;;9.60;99.90;;;;;;4964259;28;20476;-76
2022/09/30 07:15:05;;;;;;;17.90;11.07;;;9.50;99.90;;;;;;4960350;28;20046;-77
2022/09/30 07:17:33;;;;;;;14.50;10.35;;;9.60;99.90;;;;;;4962867;28;20130;-78
2022/09/30 07:20:02;;;;;;;18.98;11.05;;;9.60;99.90;;;;;;4952075;28;20053;-77
2022/09/30 07:22:30;;;;;;;20.13;12.32;;;9.60;99.90;;;;;;4962130;28;20027;-74
2022/09/30 07:24:58;;;;;;;23.08;11.75;;;9.80;99.90;;;;;;4967928;28;20461;-75
2022/09/30 07:27:25;;;;;;;21.83;12.70;;;9.80;99.90;;;;;;4964459;28;20031;-74
2022/09/30 07:29:51;;;;;;;20.05;12.32;;;9.90;99.90;;;;;;4952454;28;20022;-77
2022/09/30 07:32:18;;;;;;;21.17;12.07;;;10.10;99.90;;;;;;4964900;28;20049;-75
2022/09/30 07:34:44;;;;;;;18.30;12.23;;;10.20;99.90;;;;;;4962000;28;20042;-76
2022/09/30 07:37:12;;;;;;;19.58;12.93;;;10.30;99.90;;;;;;4962973;28;20357;-77
2022/09/30 07:39:39;;;;;;;20.42;13.05;;;10.20;99.90;;;;;;4965442;28;20035;-77
2022/09/30 07:42:07;;;;;;;19.13;12.88;;;10.20;99.90;;;;;;4964480;28;20023;-77
2022/09/30 07:44:33;;;;;;;21.33;12.65;;;10.40;99.90;;;;;;4953112;28;20054;-77
2022/09/30 07:47:00;;;;;;;19.80;13.07;;;10.50;99.90;;;;;;4960768;28;20117;-78
2022/09/30 07:49:26;;;;;;;21.98;13.60;;;10.50;99.90;;;;;;4964615;28;20155;-74
2022/09/30 07:51:59;;;;;;;24.92;13.63;;;10.70;99.90;;;;;;4964006;28;20062;-77
2022/09/30 07:54:26;;;;;;;;;;;10.70;99.90;;;;;;4963376;28;20104;-73
2022/09/30 07:56:55;;;;;;;38.17;13.95;;;10.90;99.90;;;;;;4963989;28;19917;-74
2022/09/30 07:59:21;;;;;;;24.73;14.73;;;11.00;99.90;;;;;;4963963;28;20020;-74
2022/09/30 08:01:49;;;;;;;30.58;17.42;;;11.20;99.90;;;;;;4962973;28;20030;-77
2022/09/30 08:04:19;;;;;;;19.25;13.38;;;11.40;99.90;;;;;;4959958;28;20102;-76
2022/09/30 08:06:52;;;;;;;25.75;15.25;;;11.30;99.90;;;;;;4960759;28;20043;-76
2022/09/30 08:09:22;;;;;;;25.52;14.93;;;11.40;99.90;;;;;;4962233;28;20027;-74
2022/09/30 08:11:52;;;;;;;23.13;15.60;;;11.40;99.90;;;;;;4963645;28;20030;-76
2022/09/30 08:14:23;;;;;;;22.45;15.32;;;11.40;99.90;;;;;;4959443;28;20031;-75
2022/09/30 08:16:49;;;;;;;26.73;14.55;;;11.50;99.90;;;;;;4962598;28;20026;-76
2022/09/30 08:19:17;;;;;;;24.63;16.02;;;11.50;99.90;;;;;;4959085;28;20023;-76
2022/09/30 08:21:44;;;;;;;28.42;16.75;;;11.60;99.90;;;;;;4966425;28;20042;-76
2022/09/30 08:24:13;;;;;;;29.98;15.95;;;11.80;99.90;;;;;;4967318;28;20475;-75
2022/09/30 08:26:39;;;;;;;25.90;16.85;;;12.00;99.90;;;;;;4964055;28;20031;-77
2022/09/30 08:29:05;;;;;;;28.20;17.50;;;12.20;99.90;;;;;;4957462;28;20461;-73
2022/09/30 08:31:32;;;;;;;27.70;17.17;;;12.30;99.90;;;;;;4965007;28;20035;-76
2022/09/30 08:34:02;;;;;;;33.17;18.67;;;12.30;99.90;;;;;;4962588;28;20023;-74
2022/09/30 08:36:27;;;;;;;26.92;17.85;;;12.60;99.90;;;;;;4960702;28;20054;-76
2022/09/30 08:38:54;;;;;;;28.35;17.98;;;12.90;99.90;;;;;;4970227;28;20059;-76
2022/09/30 08:41:37;;;;;;;26.27;18.40;;;12.90;99.90;;;;;;4959777;28;20054;-77
2022/09/30 08:44:05;;;;;;;29.83;18.70;;;13.10;99.90;;;;;;4950992;28;20488;-73
2022/09/30 08:47:02;;;;;;;31.23;20.05;;;13.30;99.90;;;;;;4961740;28;20046;-73
2022/09/30 08:49:48;;;;;;;31.20;18.75;;;13.80;99.90;;;;;;4934809;28;20508;-73
2022/09/30 08:52:26;;;;;;;29.15;19.40;;;13.80;99.90;;;;;;4958786;28;20062;-77
2022/09/30 08:54:54;;;;;;;31.02;18.85;;;14.00;99.90;;;;;;4959915;28;20062;-76
2022/09/30 08:57:21;;;;;;;27.92;18.58;;;14.60;99.90;;;;;;4959148;28;20102;-75
2022/09/30 08:59:51;;;;;;;27.15;19.80;;;15.40;99.90;;;;;;4953927;28;20033;-76
2022/09/30 09:02:22;;;;;;;30.30;19.08;;;16.10;99.90;;;;;;4966648;28;20023;-77
2022/09/30 09:04:51;;;;;;;31.13;20.80;;;16.70;99.90;;;;;;4963448;28;20119;-76
2022/09/30 09:07:24;;;;;;;34.83;20.42;;;17.30;99.90;;;;;;4963709;28;20151;-76
2022/09/30 09:10:01;;;;;;;34.20;21.35;;;17.70;99.90;;;;;;4947999;28;20023;-77
2022/09/30 09:12:43;;;;;;;37.97;21.30;;;17.90;99.90;;;;;;4961119;28;20030;-75
2022/09/30 09:15:29;;;;;;;32.63;21.52;;;18.40;99.90;;;;;;4965716;28;20070;-77
2022/09/30 09:18:04;;;;;;;30.83;21.33;;;18.80;99.90;;;;;;4946280;28;20027;-75
2022/09/30 09:20:40;;;;;;;33.20;21.48;;;19.40;99.30;;;;;;4956452;28;20027;-76
2022/09/30 09:23:11;;;;;;;35.72;20.15;;;20.00;97.80;;;;;;4961160;28;20369;-72
2022/09/30 09:25:37;;;;;;;121.95;55.05;;;19.40;96.00;;;;;;4964472;28;20057;-72
2022/09/30 09:28:21;;;;;;;387.55;175.88;;;19.50;96.80;;;;;;4960181;28;20126;-76
2022/09/30 09:30:53;;;;;;;36.47;21.48;;;19.90;96.40;;;;;;4953801;28;20027;-75
2022/09/30 09:33:22;;;;;;;31.98;20.92;;;20.20;94.40;;;;;;4954924;28;20113;-75
2022/09/30 09:35:57;;;;;;;33.60;21.27;;;19.80;94.10;;;;;;4962426;28;20058;-76
2022/09/30 09:38:25;;;;;;;35.13;20.40;;;19.30;94.70;;;;;;4961450;28;20034;-76
2022/09/30 09:41:18;;;;;;;31.17;21.02;;;19.00;94.90;;;;;;4962216;28;20092;-76
2022/09/30 09:43:48;;;;;;;29.13;19.52;;;19.30;94.80;;;;;;4962331;28;20737;-76
2022/09/30 09:46:37;;;;;;;26.95;19.30;;;19.20;95.00;;;;;;4962059;28;20031;-76
2022/09/30 09:49:22;;;;;;;34.38;19.65;;;19.10;94.90;;;;;;4962815;28;20030;-76
2022/09/30 09:52:13;;;;;;;29.02;19.40;;;19.10;94.70;;;;;;4966486;28;20023;-75
2022/09/30 09:54:51;;;;;;;28.15;19.92;;;18.80;94.00;;;;;;4951042;28;20233;-75
2022/09/30 09:57:26;;;;;;;26.52;19.38;;;18.50;95.70;;;;;;4967891;28;20106;-74
2022/09/30 10:03:05;;;;;;;144.98;69.30;;;18.40;95.70;;;;;;4965217;28;20078;-74
2022/09/30 10:05:38;;;;;;;217.75;116.28;;;18.40;96.50;;;;;;4966057;28;20035;-73
2022/09/30 10:08:10;;;;;;;45.50;25.60;;;18.40;96.20;;;;;;4959799;28;20035;-74
2022/09/30 10:10:58;;;;;;;28.20;21.20;;;18.60;96.30;;;;;;4964124;28;20039;-73
2022/09/30 10:13:45;;;;;;;31.23;20.30;;;18.50;96.70;;;;;;4964695;28;20035;-75
2022/09/30 10:16:29;;;;;;;29.95;19.85;;;18.40;95.90;;;;;;4964847;28;20069;-75
2022/09/30 10:18:55;;;;;;;28.70;19.60;;;18.30;96.50;;;;;;4964682;28;20050;-74
2022/09/30 10:21:24;;;;;;;30.70;20.63;;;18.50;96.50;;;;;;4964782;28;20902;-74
2022/09/30 10:23:50;;;;;;;32.55;21.17;;;18.90;96.30;;;;;;4961647;28;20041;-73
2022/09/30 10:26:15;;;;;;;29.33;21.02;;;19.00;95.50;;;;;;4953324;28;20122;-75
2022/09/30 10:28:47;;;;;;;35.47;19.60;;;19.20;94.90;;;;;;4952262;28;20361;-75
2022/09/30 10:31:24;;;;;;;30.38;20.55;;;19.40;94.30;;;;;;4964396;28;20018;-76
2022/09/30 10:34:00;;;;;;;28.20;20.27;;;19.40;94.40;;;;;;4965573;28;20031;-75
2022/09/30 10:36:40;;;;;;;29.42;19.33;;;20.00;93.90;;;;;;4960507;28;20518;-76
2022/09/30 10:39:26;;;;;;;29.77;21.30;;;20.20;92.50;;;;;;4950155;28;20027;-77
2022/09/30 10:42:06;;;;;;;31.50;19.85;;;20.40;92.10;;;;;;4963808;28;20019;-76
2022/09/30 10:44:40;;;;;;;27.50;19.83;;;20.70;92.20;;;;;;4964157;28;20357;-76
2022/09/30 10:47:06;;;;;;;29.67;19.80;;;20.70;91.10;;;;;;4964800;28;20035;-76
2022/09/30 10:49:47;;;;;;;32.08;19.80;;;20.80;91.00;;;;;;4964450;28;20372;-76
2022/09/30 10:52:23;;;;;;;26.92;20.20;;;20.80;91.20;;;;;;4962655;28;20539;-72
2022/09/30 10:54:54;;;;;;;35.67;19.92;;;20.50;90.90;;;;;;4963498;28;20062;-71
2022/09/30 10:57:34;;;;;;;23.58;17.48;;;20.20;91.50;;;;;;4969823;28;20023;-75
2022/09/30 11:00:20;;;;;;;23.40;18.17;;;19.90;90.30;;;;;;4966650;28;20035;-75
2022/09/30 11:03:06;;;;;;;26.70;18.95;;;20.20;90.60;;;;;;4964946;28;20035;-74
2022/09/30 11:05:43;;;;;;;25.88;19.05;;;20.30;90.70;;;;;;4962784;28;20169;-74
2022/09/30 11:08:21;;;;;;;25.88;19.05;;;20.20;91.20;;;;;;4960421;28;20484;-75
2022/09/30 11:11:04;;;;;;;29.55;19.55;;;20.50;91.10;;;;;;4964032;28;20031;-75
2022/09/30 11:13:36;;;;;;;25.58;18.05;;;20.80;90.80;;;;;;4962319;28;20070;-75
2022/09/30 11:16:02;;;;;;;23.10;18.27;;;20.50;89.60;;;;;;4968592;28;20034;-75
2022/09/30 11:18:33;;;;;;;25.85;17.88;;;20.60;89.10;;;;;;4962433;28;20027;-74
2022/09/30 11:21:11;;;;;;;22.95;17.48;;;20.60;87.20;;;;;;4964902;28;20424;-76
2022/09/30 11:23:47;;;;;;;28.77;16.73;;;20.60;87.60;;;;;;4959513;28;20085;-76
2022/09/30 11:26:20;;;;;;;23.27;17.95;;;20.40;85.50;;;;;;4963197;28;20031;-77
2022/09/30 11:28:51;;;;;;;;;;;20.80;89.10;;;;;;4961979;28;20027;-75
2022/09/30 11:31:45;;;;;;;23.77;16.55;;;20.60;86.70;;;;;;4960671;28;20000;-74
2022/09/30 11:34:23;;;;;;;22.92;17.13;;;20.30;86.30;;;;;;4960282;28;20057;-76
2022/09/30 11:36:54;;;;;;;22.30;18.33;;;20.10;88.00;;;;;;4960758;28;20038;-74
2022/09/30 11:39:40;;;;;;;30.23;17.98;;;20.40;87.40;;;;;;4953550;28;20027;-76
2022/09/30 11:42:08;;;;;;;23.60;17.83;;;20.10;85.60;;;;;;4963569;28;20046;-76
2022/09/30 11:44:40;;;;;;;25.75;17.77;;;19.90;87.50;;;;;;4962802;28;20393;-76
2022/09/30 11:47:24;;;;;;;28.13;18.10;;;20.10;88.10;;;;;;4943089;28;20471;-77
2022/09/30 11:50:09;;;;;;;135.77;75.40;;;20.20;89.60;;;;;;4962372;28;20043;-72
2022/09/30 11:52:37;;;;;;;179.00;103.10;;;20.90;88.90;;;;;;4962738;28;20929;-71
2022/09/30 11:55:31;;;;;;;19.73;15.02;;;20.80;85.00;;;;;;4961787;28;20114;-76
2022/09/30 11:57:59;;;;;;;22.08;14.65;;;20.70;85.00;;;;;;4962037;28;20052;-76
2022/09/30 12:00:28;;;;;;;19.33;14.30;;;20.30;84.60;;;;;;4960166;28;20090;-74
2022/09/30 12:03:00;;;;;;;17.45;13.45;;;20.40;85.40;;;;;;4951192;28;20439;-74
2022/09/30 12:05:36;;;;;;;15.55;12.52;;;20.30;86.60;;;;;;4961289;28;20031;-76
2022/09/30 12:08:08;;;;;;;18.92;13.32;;;20.20;84.50;;;;;;4962783;28;20041;-77
2022/09/30 12:10:51;;;;;;;17.55;12.68;;;21.00;84.10;;;;;;4961846;28;20061;-76
2022/09/30 12:13:23;;;;;;;14.88;13.02;;;21.00;82.80;;;;;;4967175;28;20527;-76
2022/09/30 12:15:54;;;;;;;20.90;12.40;;;21.70;83.30;;;;;;4950959;28;20142;-74
2022/09/30 12:18:34;;;;;;;15.07;12.38;;;21.80;79.70;;;;;;4963773;28;20285;-75
2022/09/30 12:21:10;;;;;;;15.43;12.45;;;21.80;79.10;;;;;;4942780;28;20136;-76
2022/09/30 12:23:43;;;;;;;14.82;11.68;;;21.40;80.00;;;;;;4954220;28;20050;-76
2022/09/30 12:26:11;;;;;;;16.85;11.55;;;21.30;82.20;;;;;;4956776;28;20094;-77
2022/09/30 12:32:02;;;;;;;13.73;11.57;;;20.80;82.10;;;;;;4963218;28;20053;-75
2022/09/30 12:34:49;;;;;;;12.77;9.98;;;20.80;82.40;;;;;;4963158;28;20030;-74
2022/09/30 12:37:47;;;;;;;13.35;10.90;;;20.10;82.10;;;;;;4944202;28;20035;-74
2022/09/30 12:40:38;;;;;;;11.82;10.40;;;19.90;84.10;;;;;;4962158;28;20027;-74
2022/09/30 12:43:25;;;;;;;11.75;10.10;;;20.30;82.90;;;;;;4963138;28;20027;-76
2022/09/30 12:46:21;;;;;;;14.63;9.57;;;20.20;81.60;;;;;;4953093;28;20058;-76
2022/09/30 12:49:02;;;;;;;10.90;9.60;;;20.20;83.30;;;;;;4946128;28;20467;-73
2022/09/30 12:51:40;;;;;;;9.57;8.65;;;20.20;82.70;;;;;;4965136;28;20118;-77
2022/09/30 12:54:26;;;;;;;13.32;9.57;;;20.40;80.60;;;;;;4963590;28;20364;-76
2022/09/30 12:57:00;;;;;;;11.60;8.88;;;20.90;80.30;;;;;;4938667;28;20027;-78
2022/09/30 12:59:51;;;;;;;9.68;8.45;;;21.00;79.40;;;;;;4962659;28;20020;-76
2022/09/30 13:02:30;;;;;;;13.35;8.73;;;20.70;80.50;;;;;;4960603;28;20022;-75
2022/09/30 13:05:31;;;;;;;12.52;9.18;;;20.00;82.70;;;;;;4962734;28;20339;-74
2022/09/30 13:08:04;;;;;;;9.82;8.63;;;20.50;82.10;;;;;;4966887;28;20031;-75
2022/09/30 13:10:46;;;;;;;12.80;8.60;;;20.90;81.60;;;;;;4957963;28;20051;-75
2022/09/30 13:13:26;;;;;;;9.68;7.78;;;20.90;82.00;;;;;;4957040;28;20086;-76
2022/09/30 13:16:02;;;;;;;11.20;8.65;;;21.60;79.80;;;;;;4947980;28;20428;-76